createdAt,value
2022-08-18T00:02:18.377Z,80.15
2022-08-18T00:04:49.550Z,80.22
2022-08-18T00:07:24.119Z,80.44
2022-08-18T00:09:52.642Z,80.31
2022-08-18T00:12:32.776Z,80.61
2022-08-18T00:15:03.690Z,80.70
2022-08-18T00:17:34.807Z,80.42
2022-08-18T00:20:05.154Z,80.37
2022-08-18T00:22:33.548Z,80.59
2022-08-18T00:25:02.014Z,80.57
2022-08-18T00:27:32.371Z,80.67
2022-08-18T00:30:04.814Z,80.45
2022-08-18T00:32:44.513Z,80.16
2022-08-18T00:35:20.959Z,80.39
2022-08-18T00:37:50.434Z,80.21
2022-08-18T00:40:23.213Z,79.91
2022-08-18T00:42:58.062Z,80.23
2022-08-18T00:45:32.829Z,80.59
2022-08-18T00:48:02.500Z,81.12
2022-08-18T00:50:38.210Z,81.40
2022-08-18T00:53:21.511Z,81.82
2022-08-18T00:55:54.154Z,82.24
2022-08-18T00:58:29.415Z,82.22
2022-08-18T01:01:03.032Z,82.51
2022-08-18T01:03:36.322Z,82.89
2022-08-18T01:06:14.548Z,82.31
2022-08-18T01:08:43.002Z,82.21
2022-08-18T01:11:11.501Z,82.46
2022-08-18T01:13:42.673Z,82.45
2022-08-18T01:16:29.000Z,82.53
2022-08-18T01:19:16.636Z,83.03
2022-08-18T01:21:52.178Z,83.12
2022-08-18T01:24:46.572Z,83.79
2022-08-18T01:27:18.603Z,84.44
2022-08-18T01:29:48.622Z,84.35
2022-08-18T01:32:20.352Z,84.26
2022-08-18T01:34:53.625Z,83.34
2022-08-18T01:37:26.388Z,83.27
2022-08-18T01:41:17.550Z,84.08
2022-08-18T01:42:46.557Z,84.81
2022-08-18T01:45:18.086Z,85.25
2022-08-18T01:47:48.027Z,85.33
2022-08-18T01:50:17.684Z,85.34
2022-08-18T01:52:46.195Z,85.63
2022-08-18T01:55:19.785Z,85.11
2022-08-18T01:57:48.164Z,85.19
2022-08-18T02:00:19.813Z,85.29
2022-08-18T02:03:01.673Z,84.87
2022-08-18T02:05:36.722Z,84.69
2022-08-18T02:08:08.411Z,84.81
2022-08-18T02:10:38.635Z,85.30
2022-08-18T02:13:07.522Z,85.61
2022-08-18T02:15:36.368Z,85.41
2022-08-18T02:18:04.745Z,85.37
2022-08-18T02:20:33.081Z,85.50
2022-08-18T02:23:03.378Z,85.54
2022-08-18T02:25:33.104Z,85.44
2022-08-18T02:28:02.809Z,85.33
2022-08-18T02:30:31.247Z,85.47
2022-08-18T02:32:59.660Z,85.27
2022-08-18T02:35:28.167Z,85.65
2022-08-18T02:37:57.968Z,85.81
2022-08-18T02:40:28.268Z,85.95
2022-08-18T02:42:56.964Z,85.60
2022-08-18T02:45:26.665Z,84.79
2022-08-18T02:47:56.369Z,84.54
2022-08-18T02:50:25.134Z,83.79
2022-08-18T02:52:54.246Z,83.51
2022-08-18T02:55:22.693Z,83.39
2022-08-18T02:57:51.175Z,83.67
2022-08-18T03:00:20.680Z,84.58
2022-08-18T03:02:52.074Z,84.78
2022-08-18T03:05:20.585Z,84.76
2022-08-18T03:07:50.376Z,84.97
2022-08-18T03:10:32.545Z,85.17
2022-08-18T03:13:02.680Z,85.13
2022-08-18T03:15:31.009Z,85.23
2022-08-18T03:18:02.138Z,85.47
2022-08-18T03:20:31.628Z,85.63
2022-08-18T03:23:04.739Z,85.04
2022-08-18T03:25:34.489Z,84.82
2022-08-18T03:28:04.449Z,84.75
2022-08-18T03:30:32.735Z,85.26
2022-08-18T03:33:02.383Z,85.66
2022-08-18T03:35:31.103Z,85.67
2022-08-18T03:38:00.835Z,85.76
2022-08-18T03:40:29.558Z,85.86
2022-08-18T03:42:57.928Z,85.49
2022-08-18T03:45:31.967Z,85.00
2022-08-18T03:48:02.276Z,85.46
2022-08-18T03:50:32.329Z,86.53
2022-08-18T03:53:00.656Z,87.56
2022-08-18T03:55:29.634Z,87.49
2022-08-18T03:58:03.518Z,87.23
2022-08-18T04:00:33.655Z,86.87
2022-08-18T04:03:04.527Z,86.46
2022-08-18T04:05:34.315Z,86.05
2022-08-18T04:08:04.808Z,85.87
2022-08-18T04:10:33.396Z,85.87
2022-08-18T04:13:02.659Z,85.83
2022-08-18T04:15:30.929Z,85.79
2022-08-18T04:18:04.482Z,85.66
2022-08-18T04:20:33.722Z,85.91
2022-08-18T04:23:02.995Z,86.58
2022-08-18T04:25:33.478Z,86.90
2022-08-18T04:28:03.563Z,87.10
2022-08-18T04:30:32.308Z,87.14
2022-08-18T04:33:06.408Z,87.16
2022-08-18T04:35:38.936Z,87.06
2022-08-18T04:38:07.493Z,87.22
2022-08-18T04:40:35.744Z,87.50
2022-08-18T04:43:04.093Z,87.13
2022-08-18T04:45:32.397Z,87.13
2022-08-18T04:48:00.674Z,87.33
2022-08-18T04:50:30.215Z,87.27
2022-08-18T04:53:16.131Z,87.27
2022-08-18T04:55:49.506Z,87.29
2022-08-18T04:58:18.727Z,87.35
2022-08-18T05:00:47.342Z,87.40
2022-08-18T05:03:15.934Z,87.34
2022-08-18T05:05:45.607Z,87.43
2022-08-18T05:08:13.966Z,87.46
2022-08-18T05:10:42.240Z,87.29
2022-08-18T05:13:10.519Z,87.00
2022-08-18T05:16:07.022Z,86.48
2022-08-18T05:18:28.591Z,86.18
2022-08-18T05:21:00.079Z,85.99
2022-08-18T05:23:31.589Z,85.95
2022-08-18T05:26:02.209Z,85.78
2022-08-18T05:28:30.655Z,85.77
2022-08-18T05:31:00.397Z,85.88
2022-08-18T05:33:29.297Z,85.90
2022-08-18T05:36:06.034Z,86.75
2022-08-18T05:38:44.981Z,86.83
2022-08-18T05:41:21.893Z,87.07
2022-08-18T05:43:51.844Z,87.17
2022-08-18T05:46:23.497Z,87.41
2022-08-18T05:48:52.049Z,87.26
2022-08-18T05:51:30.352Z,86.99
2022-08-18T05:54:16.390Z,87.16
2022-08-18T05:56:49.483Z,87.46
2022-08-18T05:59:24.155Z,86.95
2022-08-18T06:02:00.366Z,86.13
2022-08-18T06:04:43.073Z,85.04
2022-08-18T06:07:18.727Z,84.43
2022-08-18T06:09:51.688Z,84.17
2022-08-18T06:12:29.165Z,83.60
2022-08-18T06:15:06.684Z,82.32
2022-08-18T06:18:05.287Z,81.46
2022-08-18T06:20:47.856Z,80.48
2022-08-18T06:23:28.942Z,79.83
2022-08-18T06:26:12.466Z,79.04
2022-08-18T06:29:02.628Z,78.88
2022-08-18T06:31:41.835Z,77.99
2022-08-18T06:34:21.791Z,77.24
2022-08-18T06:36:55.702Z,76.96
2022-08-18T06:39:33.907Z,76.34
2022-08-18T06:42:05.958Z,76.48
2022-08-18T06:44:39.815Z,76.63
2022-08-18T06:47:18.405Z,76.39
2022-08-18T06:49:54.920Z,75.70
2022-08-18T06:52:29.117Z,74.91
2022-08-18T06:55:01.149Z,74.37
2022-08-18T06:57:34.982Z,73.35
2022-08-18T07:00:11.259Z,72.45
2022-08-18T07:02:49.989Z,71.66
2022-08-18T07:05:26.624Z,72.07
2022-08-18T07:08:18.615Z,71.72
2022-08-18T07:10:51.519Z,71.44
2022-08-18T07:13:26.264Z,71.71
2022-08-18T07:15:57.098Z,71.91
2022-08-18T07:18:30.316Z,70.95
2022-08-18T07:21:01.701Z,70.69
2022-08-18T07:23:35.072Z,70.16
2022-08-18T07:26:11.308Z,68.71
2022-08-18T07:28:44.230Z,69.07
2022-08-18T07:31:37.701Z,69.55
2022-08-18T07:34:13.232Z,68.37
2022-08-18T07:36:48.685Z,68.57
2022-08-18T07:39:24.515Z,67.54
2022-08-18T07:42:00.266Z,66.99
2022-08-18T07:44:44.300Z,67.23
2022-08-18T07:47:18.908Z,68.00
2022-08-18T07:50:16.493Z,68.97
2022-08-18T07:52:47.042Z,69.14
2022-08-18T07:55:28.936Z,69.44
2022-08-18T07:58:18.717Z,69.78
2022-08-18T08:00:59.422Z,70.42
2022-08-18T08:03:43.811Z,69.87
2022-08-18T08:06:21.967Z,69.55
2022-08-18T08:09:00.833Z,68.29
2022-08-18T08:11:44.528Z,68.23
2022-08-18T08:14:37.319Z,67.87
2022-08-18T08:17:17.228Z,67.38
2022-08-18T08:20:12.631Z,67.14
2022-08-18T08:22:54.564Z,67.91
2022-08-18T08:25:45.798Z,67.67
2022-08-18T08:28:28.003Z,65.69
2022-08-18T08:31:33.059Z,65.49
2022-08-18T08:34:08.591Z,65.07
2022-08-18T08:36:41.160Z,64.28
2022-08-18T08:39:18.773Z,63.65
2022-08-18T08:41:53.718Z,61.37
2022-08-18T08:44:58.747Z,61.01
2022-08-18T08:47:33.980Z,60.11
2022-08-18T08:50:07.083Z,60.53
2022-08-18T08:52:43.281Z,62.65
2022-08-18T08:55:26.417Z,63.95
2022-08-18T08:58:02.120Z,64.68
2022-08-18T09:00:31.282Z,63.95
2022-08-18T09:03:30.777Z,62.05
2022-08-18T09:06:15.269Z,60.57
2022-08-18T09:09:08.941Z,60.79
2022-08-18T09:12:02.644Z,60.48
2022-08-18T09:15:05.856Z,60.90
2022-08-18T09:17:56.217Z,59.97
2022-08-18T09:20:57.126Z,59.95
2022-08-18T09:23:29.836Z,59.23
2022-08-18T09:26:01.117Z,57.52
2022-08-18T09:28:58.826Z,58.53
2022-08-18T09:31:31.813Z,59.34
2022-08-18T09:34:26.332Z,59.33
2022-08-18T09:37:19.306Z,60.26
2022-08-18T09:40:51.441Z,60.30
2022-08-18T09:43:30.523Z,60.90
2022-08-18T09:46:04.781Z,63.67
2022-08-18T09:48:35.811Z,64.77
2022-08-18T09:51:39.785Z,65.79
2022-08-18T09:54:20.739Z,66.64
2022-08-18T09:57:20.742Z,66.19
2022-08-18T10:00:33.487Z,66.31
2022-08-18T10:03:26.072Z,66.17
2022-08-18T10:09:36.855Z,64.72
2022-08-18T10:12:23.318Z,64.20
2022-08-18T10:15:49.338Z,63.47
2022-08-18T10:18:43.260Z,63.78
2022-08-18T10:21:23.007Z,63.31
2022-08-18T10:24:15.174Z,63.72
2022-08-18T10:27:36.664Z,63.52
2022-08-18T10:34:19.175Z,62.51
2022-08-18T10:36:52.779Z,62.09
2022-08-18T10:39:24.813Z,60.44
2022-08-18T10:42:08.058Z,60.55
2022-08-18T10:44:45.445Z,60.39
2022-08-18T10:47:24.909Z,59.55
2022-08-18T10:49:55.100Z,59.40
2022-08-18T10:53:10.174Z,60.13
2022-08-18T10:55:56.992Z,60.24
2022-08-18T10:59:04.376Z,59.04
2022-08-18T11:01:48.858Z,59.90
2022-08-18T11:07:23.936Z,59.59
2022-08-18T11:13:08.795Z,58.13
2022-08-18T11:15:56.337Z,58.10
2022-08-18T11:18:36.290Z,57.08
2022-08-18T11:21:34.215Z,57.25
2022-08-18T11:24:16.867Z,56.05
2022-08-18T11:29:40.404Z,54.55
2022-08-18T11:32:12.723Z,54.71
2022-08-18T11:34:45.782Z,52.56
2022-08-18T11:37:48.495Z,53.38
2022-08-18T11:43:29.963Z,52.39
2022-08-18T11:46:30.260Z,52.15
2022-08-18T11:49:02.134Z,52.00
2022-08-18T11:51:34.937Z,51.44
2022-08-18T11:57:46.779Z,51.73
2022-08-18T12:00:43.142Z,51.62
2022-08-18T12:03:23.941Z,51.81
2022-08-18T12:05:58.755Z,52.51
2022-08-18T12:11:30.013Z,52.29
2022-08-18T12:14:31.922Z,50.93
2022-08-18T12:16:54.457Z,51.20
2022-08-18T12:19:25.061Z,51.21
2022-08-18T12:21:58.390Z,50.51
2022-08-18T12:24:36.571Z,49.68
2022-08-18T12:27:21.007Z,50.33
2022-08-18T12:29:53.192Z,49.93
2022-08-18T12:35:13.148Z,51.08
2022-08-18T12:38:11.316Z,51.24
2022-08-18T12:40:33.155Z,50.87
2022-08-18T12:43:02.592Z,50.93
2022-08-18T12:45:32.628Z,50.67
2022-08-18T12:48:04.005Z,48.79
2022-08-18T12:50:37.553Z,50.19
2022-08-18T12:53:08.070Z,49.51
2022-08-18T12:55:43.643Z,47.82
2022-08-18T12:58:14.069Z,48.20
2022-08-18T13:00:44.825Z,48.86
2022-08-18T13:03:13.126Z,47.68
2022-08-18T13:05:41.493Z,46.94
2022-08-18T13:08:30.504Z,47.25
2022-08-18T13:11:14.491Z,47.81
2022-08-18T13:13:53.307Z,48.55
2022-08-18T13:16:30.855Z,48.79
2022-08-18T13:19:10.954Z,48.81
2022-08-18T13:21:41.357Z,49.16
2022-08-18T13:24:09.963Z,50.13
2022-08-18T13:26:45.794Z,50.31
2022-08-18T13:29:17.579Z,49.70
2022-08-18T13:31:56.004Z,48.94
2022-08-18T13:34:29.970Z,49.24
2022-08-18T13:36:58.860Z,49.24
2022-08-18T13:39:34.142Z,49.12
2022-08-18T13:42:26.292Z,49.59
2022-08-18T13:44:55.078Z,50.23
2022-08-18T13:47:29.206Z,50.50
2022-08-18T13:49:59.860Z,50.54
2022-08-18T13:52:34.903Z,51.21
2022-08-18T13:55:07.983Z,51.63
2022-08-18T13:57:38.441Z,50.71
2022-08-18T14:00:18.433Z,50.95
2022-08-18T14:02:53.547Z,50.80
2022-08-18T14:05:36.367Z,50.75
2022-08-18T14:08:11.124Z,51.07
2022-08-18T14:10:50.638Z,50.80
2022-08-18T14:13:25.092Z,51.33
2022-08-18T14:15:56.312Z,51.47
2022-08-18T14:18:30.831Z,51.42
2022-08-18T14:21:22.902Z,50.89
2022-08-18T14:24:10.681Z,51.24
2022-08-18T14:26:50.519Z,51.01
2022-08-18T14:29:45.838Z,52.82
2022-08-18T14:32:08.629Z,53.07
2022-08-18T14:34:50.608Z,55.00
2022-08-18T14:37:20.110Z,55.50
2022-08-18T14:39:50.365Z,54.74
2022-08-18T14:42:41.354Z,55.55
2022-08-18T14:45:17.851Z,56.26
2022-08-18T14:47:56.876Z,57.29
2022-08-18T14:50:28.463Z,56.42
2022-08-18T14:52:56.782Z,57.26
2022-08-18T14:55:27.614Z,57.38
2022-08-18T14:57:58.561Z,56.25
2022-08-18T15:00:29.184Z,55.92
2022-08-18T15:02:59.838Z,56.07
2022-08-18T15:05:33.729Z,56.61
2022-08-18T15:08:04.719Z,57.10
2022-08-18T15:10:33.921Z,56.05
2022-08-18T15:13:02.495Z,55.96
2022-08-18T15:15:50.643Z,56.12
2022-08-18T15:18:22.258Z,56.27
2022-08-18T15:21:19.744Z,56.98
2022-08-18T15:24:20.153Z,56.64
2022-08-18T15:26:51.507Z,56.31
2022-08-18T15:29:22.595Z,55.88
2022-08-18T15:32:02.220Z,55.06
2022-08-18T15:34:46.935Z,56.41
2022-08-18T15:37:24.450Z,55.74
2022-08-18T15:40:05.625Z,56.81
2022-08-18T15:42:33.988Z,56.52
2022-08-18T15:45:11.514Z,56.83
2022-08-18T15:47:41.655Z,56.37
2022-08-18T15:50:25.882Z,56.51
2022-08-18T15:52:59.276Z,56.96
2022-08-18T15:55:29.780Z,56.55
2022-08-18T15:58:10.902Z,55.32
2022-08-18T16:00:46.255Z,55.70
2022-08-18T16:03:16.976Z,56.04
2022-08-18T16:05:53.077Z,56.81
2022-08-18T16:08:25.937Z,57.70
2022-08-18T16:10:55.453Z,57.57
2022-08-18T16:13:26.436Z,56.61
2022-08-18T16:15:54.725Z,56.33
2022-08-18T16:18:22.939Z,56.59
2022-08-18T16:20:52.759Z,56.02
2022-08-18T16:23:26.516Z,55.26
2022-08-18T16:26:01.850Z,55.34
2022-08-18T16:28:34.390Z,55.02
2022-08-18T16:31:04.109Z,54.77
2022-08-18T16:33:32.477Z,54.74
2022-08-18T16:36:05.867Z,53.88
2022-08-18T16:38:37.039Z,55.18
2022-08-18T16:41:11.323Z,55.88
2022-08-18T16:43:44.336Z,57.54
2022-08-18T16:46:14.215Z,56.54
2022-08-18T16:48:43.162Z,56.36
2022-08-18T16:51:19.309Z,55.61
2022-08-18T16:53:52.135Z,54.28
2022-08-18T16:56:23.206Z,55.30
2022-08-18T16:59:10.465Z,55.16
2022-08-18T17:01:57.633Z,54.61
2022-08-18T17:04:29.083Z,54.57
2022-08-18T17:06:58.451Z,54.15
2022-08-18T17:09:28.494Z,54.03
2022-08-18T17:11:56.863Z,54.01
2022-08-18T17:14:28.607Z,53.44
2022-08-18T17:16:58.549Z,53.94
2022-08-18T17:19:31.202Z,53.79
2022-08-18T17:21:59.737Z,53.56
2022-08-18T17:24:31.276Z,53.74
2022-08-18T17:27:21.192Z,53.77
2022-08-18T17:30:03.343Z,53.54
2022-08-18T17:32:42.022Z,52.80
2022-08-18T17:35:15.205Z,52.66
2022-08-18T17:37:52.203Z,52.78
2022-08-18T17:40:29.267Z,53.09
2022-08-18T17:42:59.824Z,53.02
2022-08-18T17:45:29.796Z,52.29
2022-08-18T17:48:04.761Z,52.38
2022-08-18T17:50:56.138Z,52.54
2022-08-18T17:53:25.951Z,52.09
2022-08-18T17:56:03.102Z,52.18
2022-08-18T17:58:40.642Z,53.09
2022-08-18T18:01:11.166Z,52.76
2022-08-18T18:03:40.067Z,52.70
2022-08-18T18:06:20.222Z,52.59
2022-08-18T18:08:55.549Z,52.74
2022-08-18T18:11:32.295Z,53.71
2022-08-18T18:14:02.594Z,53.21
2022-08-18T18:16:35.476Z,53.64
2022-08-18T18:19:07.661Z,53.36
2022-08-18T18:21:53.509Z,53.37
2022-08-18T18:24:33.289Z,53.56
2022-08-18T18:27:03.748Z,53.57
2022-08-18T18:29:38.092Z,54.17
2022-08-18T18:32:26.282Z,54.46
2022-08-18T18:35:27.460Z,55.01
2022-08-18T18:37:58.068Z,54.48
2022-08-18T18:40:34.980Z,54.63
2022-08-18T18:43:25.219Z,54.83
2022-08-18T18:46:24.869Z,55.68
2022-08-18T18:49:16.745Z,55.67
2022-08-18T18:52:00.399Z,55.77
2022-08-18T18:54:50.814Z,56.35
2022-08-18T18:57:31.822Z,56.80
2022-08-18T19:00:18.148Z,56.72
2022-08-18T19:03:03.700Z,56.78
2022-08-18T19:05:39.031Z,56.88
2022-08-18T19:08:24.036Z,57.02
2022-08-18T19:11:00.889Z,57.62
2022-08-18T19:13:35.432Z,59.66
2022-08-18T19:16:23.698Z,61.45
2022-08-18T19:18:57.668Z,60.45
2022-08-18T19:22:04.021Z,60.92
2022-08-18T19:24:42.095Z,60.92
2022-08-18T19:27:23.816Z,60.55
2022-08-18T19:29:57.749Z,61.32
2022-08-18T19:32:39.319Z,62.67
2022-08-18T19:35:13.529Z,62.65
2022-08-18T19:38:07.355Z,62.66
2022-08-18T19:40:45.481Z,63.05
2022-08-18T19:43:24.875Z,63.25
2022-08-18T19:46:02.683Z,62.72
2022-08-18T19:48:43.142Z,62.62
2022-08-18T19:51:23.450Z,63.23
2022-08-18T19:54:25.646Z,63.13
2022-08-18T19:57:11.820Z,63.63
2022-08-18T20:00:18.800Z,64.63
2022-08-18T20:03:33.341Z,63.55
2022-08-18T20:06:34.595Z,63.56
2022-08-18T20:09:44.812Z,64.40
2022-08-18T20:12:37.769Z,64.58
2022-08-18T20:15:16.505Z,64.51
2022-08-18T20:18:08.244Z,65.17
2022-08-18T20:20:39.483Z,65.11
2022-08-18T20:23:34.687Z,65.97
2022-08-18T20:26:03.122Z,67.11
2022-08-18T20:28:40.852Z,67.29
2022-08-18T20:31:14.742Z,68.53
2022-08-18T20:33:48.143Z,69.15
2022-08-18T20:36:37.040Z,67.91
2022-08-18T20:39:41.207Z,68.75
2022-08-18T20:42:43.610Z,69.66
2022-08-18T20:45:30.517Z,69.89
2022-08-18T20:48:17.687Z,69.94
2022-08-18T20:51:09.212Z,70.93
2022-08-18T20:54:17.578Z,69.41
2022-08-18T20:56:54.360Z,69.93
2022-08-18T20:59:30.589Z,70.57
2022-08-18T21:02:02.066Z,71.10
2022-08-18T21:04:52.021Z,70.04
2022-08-18T21:07:36.304Z,70.04
2022-08-18T21:10:13.791Z,70.60
2022-08-18T21:12:52.946Z,70.48
2022-08-18T21:15:26.310Z,70.83
2022-08-18T21:18:03.318Z,70.84
2022-08-18T21:20:32.875Z,70.88
2022-08-18T21:23:12.738Z,70.72
2022-08-18T21:25:53.811Z,70.99
2022-08-18T21:28:27.080Z,71.44
2022-08-18T21:31:42.346Z,71.50
2022-08-18T21:33:52.559Z,71.18
2022-08-18T21:36:25.401Z,70.97
2022-08-18T21:39:03.422Z,69.98
2022-08-18T21:41:34.995Z,71.10
2022-08-18T21:44:08.560Z,71.56
2022-08-18T21:46:37.618Z,71.89
2022-08-18T21:49:06.657Z,71.73
2022-08-18T21:51:46.704Z,72.35
2022-08-18T21:54:19.307Z,72.39
2022-08-18T21:56:48.281Z,73.24
2022-08-18T21:59:20.847Z,72.83
2022-08-18T22:01:51.730Z,72.15
2022-08-18T22:04:28.506Z,72.11
2022-08-18T22:07:00.909Z,72.10
2022-08-18T22:09:53.224Z,72.25
2022-08-18T22:12:51.507Z,72.01
2022-08-18T22:15:24.290Z,72.08
2022-08-18T22:17:57.733Z,72.16
2022-08-18T22:20:49.698Z,71.89
2022-08-18T22:23:54.031Z,71.98
2022-08-18T22:26:27.185Z,72.86
2022-08-18T22:29:02.207Z,72.71
2022-08-18T22:31:35.580Z,72.56
2022-08-18T22:34:07.356Z,73.35
2022-08-18T22:36:38.993Z,73.64
2022-08-18T22:39:12.530Z,73.80
2022-08-18T22:41:41.856Z,74.00
2022-08-18T22:44:10.419Z,73.43
2022-08-18T22:46:40.204Z,73.65
2022-08-18T22:49:08.515Z,73.77
2022-08-18T22:51:37.496Z,74.33
2022-08-18T22:54:08.397Z,74.39
2022-08-18T22:56:37.898Z,74.65
2022-08-18T22:59:15.594Z,74.72
2022-08-18T23:01:51.776Z,75.70
2022-08-18T23:04:24.629Z,75.70
2022-08-18T23:06:53.785Z,74.93
2022-08-18T23:09:24.839Z,75.11
2022-08-18T23:11:56.716Z,75.44
2022-08-18T23:14:25.651Z,76.10
2022-08-18T23:16:55.239Z,76.60
2022-08-18T23:19:23.551Z,76.97
2022-08-18T23:21:52.459Z,76.46
2022-08-18T23:24:22.470Z,76.08
2022-08-18T23:26:50.922Z,76.68
2022-08-18T23:29:21.121Z,77.46
2022-08-18T23:31:51.415Z,78.00
2022-08-18T23:34:27.251Z,77.85
2022-08-18T23:37:00.845Z,78.23
2022-08-18T23:39:31.631Z,79.55
2022-08-18T23:42:00.979Z,80.07
2022-08-18T23:44:30.317Z,79.86
2022-08-18T23:47:00.473Z,79.80
2022-08-18T23:49:31.747Z,79.47
2022-08-18T23:52:01.424Z,79.24
2022-08-18T23:54:33.357Z,78.62
2022-08-18T23:57:02.252Z,78.31
2022-08-18T23:59:30.697Z,77.53
